createdAt,value
2022-10-21T00:01:07.158Z,34.03
2022-10-21T00:03:12.655Z,29.60
2022-10-21T00:05:14.392Z,28.55
2022-10-21T00:07:15.954Z,25.08
2022-10-21T00:09:17.885Z,27.42
2022-10-21T00:11:19.406Z,27.77
2022-10-21T00:13:21.570Z,25.20
2022-10-21T00:15:23.283Z,24.13
2022-10-21T00:17:24.877Z,26.25
2022-10-21T00:19:26.420Z,27.08
2022-10-21T00:21:28.218Z,26.63
2022-10-21T00:23:29.707Z,28.92
2022-10-21T00:25:31.218Z,25.88
2022-10-21T00:27:33.233Z,26.15
2022-10-21T00:29:34.824Z,28.42
2022-10-21T00:31:36.367Z,25.40
2022-10-21T00:33:38.098Z,27.33
2022-10-21T00:35:39.754Z,27.90
2022-10-21T00:37:41.377Z,29.05
2022-10-21T00:39:43.223Z,28.88
2022-10-21T00:41:44.775Z,30.92
2022-10-21T00:44:12.359Z,29.23
2022-10-21T00:46:18.323Z,28.27
2022-10-21T00:48:38.470Z,28.65
2022-10-21T00:50:46.742Z,29.48
2022-10-21T00:52:48.568Z,30.13
2022-10-21T00:54:52.771Z,32.90
2022-10-21T00:56:54.986Z,30.38
2022-10-21T00:58:57.881Z,31.90
2022-10-21T01:01:00.069Z,31.85
2022-10-21T01:03:01.714Z,32.00
2022-10-21T01:05:04.557Z,29.00
2022-10-21T01:07:06.129Z,34.88
2022-10-21T01:09:07.736Z,32.20
2022-10-21T01:11:14.448Z,31.52
2022-10-21T01:13:15.913Z,32.90
2022-10-21T01:15:35.181Z,33.00
2022-10-21T01:17:54.226Z,33.95
2022-10-21T01:20:13.978Z,34.13
2022-10-21T01:22:15.462Z,35.45
2022-10-21T01:24:31.237Z,35.80
2022-10-21T01:27:05.360Z,31.73
2022-10-21T01:29:12.944Z,31.40
2022-10-21T01:31:20.683Z,32.10
2022-10-21T01:33:34.867Z,30.92
2022-10-21T01:35:36.378Z,33.97
2022-10-21T01:37:43.019Z,31.83
2022-10-21T01:40:04.949Z,32.45
2022-10-21T01:42:16.472Z,31.15
2022-10-21T01:44:24.211Z,32.35
2022-10-21T01:46:27.635Z,31.95
2022-10-21T01:48:32.299Z,34.50
2022-10-21T01:50:38.242Z,33.55
2022-10-21T01:52:41.211Z,31.67
2022-10-21T01:54:47.947Z,33.80
2022-10-21T01:56:50.097Z,33.45
2022-10-21T01:58:53.060Z,33.08
2022-10-21T02:02:57.095Z,29.40
2022-10-21T02:04:59.347Z,30.40
2022-10-21T02:07:00.998Z,30.27
2022-10-21T02:09:02.789Z,31.90
2022-10-21T02:11:06.871Z,32.17
2022-10-21T02:13:10.605Z,29.23
2022-10-21T02:15:13.573Z,29.80
2022-10-21T02:17:17.447Z,31.08
2022-10-21T02:19:20.065Z,30.10
2022-10-21T02:21:23.423Z,29.60
2022-10-21T02:23:30.413Z,32.38
2022-10-21T02:25:33.589Z,26.85
2022-10-21T02:27:35.487Z,34.20
2022-10-21T02:29:38.654Z,30.85
2022-10-21T02:31:59.067Z,28.23
2022-10-21T02:34:03.595Z,30.10
2022-10-21T02:36:16.031Z,33.35
2022-10-21T02:38:28.819Z,30.73
2022-10-21T02:40:34.134Z,32.47
2022-10-21T02:42:39.988Z,30.48
2022-10-21T02:44:41.830Z,30.13
2022-10-21T02:46:44.673Z,28.23
2022-10-21T02:48:47.005Z,31.65
2022-10-21T02:50:48.602Z,32.45
2022-10-21T02:52:50.507Z,33.47
2022-10-21T02:54:52.155Z,31.85
2022-10-21T02:56:53.688Z,29.95
2022-10-21T02:58:55.451Z,30.10
2022-10-21T03:00:57.061Z,31.95
2022-10-21T03:02:58.682Z,30.73
2022-10-21T03:05:00.466Z,34.40
2022-10-21T03:07:01.977Z,31.52
2022-10-21T03:09:05.341Z,36.85
2022-10-21T03:11:07.151Z,33.75
2022-10-21T03:13:08.671Z,33.38
2022-10-21T03:15:10.497Z,39.03
2022-10-21T03:17:12.195Z,34.20
2022-10-21T03:19:13.814Z,36.38
2022-10-21T03:21:15.395Z,36.42
2022-10-21T03:23:17.835Z,35.03
2022-10-21T03:25:19.552Z,31.13
2022-10-21T03:27:21.233Z,32.45
2022-10-21T03:29:22.977Z,33.10
2022-10-21T03:31:24.463Z,34.55
2022-10-21T03:33:25.956Z,35.28
2022-10-21T03:35:28.208Z,33.58
2022-10-21T03:37:29.813Z,32.27
2022-10-21T03:39:31.315Z,36.72
2022-10-21T03:41:33.014Z,31.75
2022-10-21T03:43:34.540Z,33.38
2022-10-21T03:45:36.091Z,34.58
2022-10-21T03:47:37.998Z,35.28
2022-10-21T03:49:39.512Z,33.97
2022-10-21T03:51:41.104Z,35.63
2022-10-21T03:53:43.936Z,37.15
2022-10-21T03:55:45.673Z,37.92
2022-10-21T03:57:47.631Z,31.55
2022-10-21T03:59:49.322Z,39.17
2022-10-21T04:01:50.921Z,34.40
2022-10-21T04:03:53.157Z,37.25
2022-10-21T04:05:55.456Z,37.88
2022-10-21T04:07:57.072Z,36.50
2022-10-21T04:09:58.659Z,34.60
2022-10-21T04:12:00.389Z,32.65
2022-10-21T04:14:02.037Z,37.80
2022-10-21T04:16:04.927Z,33.33
2022-10-21T04:18:07.289Z,37.10
2022-10-21T04:20:10.184Z,34.95
2022-10-21T04:22:11.711Z,36.53
2022-10-21T04:24:13.642Z,31.88
2022-10-21T04:26:15.184Z,33.40
2022-10-21T04:28:16.769Z,33.80
2022-10-21T04:30:18.566Z,31.23
2022-10-21T04:32:20.272Z,34.42
2022-10-21T04:34:21.803Z,33.47
2022-10-21T04:36:23.515Z,35.50
2022-10-21T04:38:25.304Z,33.72
2022-10-21T04:40:27.165Z,35.17
2022-10-21T04:44:37.280Z,34.17
2022-10-21T04:46:38.816Z,32.55
2022-10-21T04:48:40.535Z,38.92
2022-10-21T04:50:42.051Z,31.63
2022-10-21T04:52:43.576Z,32.53
2022-10-21T04:54:45.332Z,28.58
2022-10-21T04:56:46.876Z,27.88
2022-10-21T04:58:48.414Z,30.20
2022-10-21T05:00:50.739Z,30.95
2022-10-21T05:02:52.313Z,30.38
2022-10-21T05:04:53.859Z,31.15
2022-10-21T05:06:55.583Z,29.67
2022-10-21T05:08:57.251Z,30.50
2022-10-21T05:11:00.203Z,33.58
2022-10-21T05:13:01.962Z,31.38
2022-10-21T05:15:03.806Z,31.08
2022-10-21T05:17:05.451Z,30.33
2022-10-21T05:19:07.185Z,30.40
2022-10-21T05:21:08.972Z,29.73
2022-10-21T05:23:10.650Z,29.25
2022-10-21T05:25:12.448Z,32.95
2022-10-21T05:27:13.965Z,34.08
2022-10-21T05:29:15.610Z,40.05
2022-10-21T05:31:17.339Z,35.05
2022-10-21T05:33:18.991Z,28.45
2022-10-21T05:35:20.507Z,28.42
2022-10-21T05:37:22.246Z,32.22
2022-10-21T05:39:23.751Z,31.88
2022-10-21T05:41:25.267Z,33.05
2022-10-21T05:43:28.007Z,31.17
2022-10-21T05:45:29.661Z,30.23
2022-10-21T05:47:31.181Z,28.95
2022-10-21T05:49:32.929Z,31.95
2022-10-21T05:51:34.491Z,27.98
2022-10-21T05:53:36.068Z,30.75
2022-10-21T05:55:37.863Z,49.00
2022-10-21T05:57:39.566Z,26.98
2022-10-21T05:59:41.121Z,27.40
2022-10-21T06:01:42.888Z,24.33
2022-10-21T06:03:44.383Z,29.98
2022-10-21T06:05:45.928Z,48.67
2022-10-21T06:07:48.116Z,30.55
2022-10-21T06:09:49.849Z,31.15
2022-10-21T06:11:51.607Z,31.85
2022-10-21T06:13:53.356Z,30.65
2022-10-21T06:15:54.868Z,29.50
2022-10-21T06:17:56.441Z,26.10
2022-10-21T06:19:58.178Z,29.52
2022-10-21T06:21:59.744Z,29.08
2022-10-21T06:24:01.289Z,25.88
2022-10-21T06:26:04.653Z,29.15
2022-10-21T06:28:06.275Z,24.55
2022-10-21T06:30:08.091Z,26.70
2022-10-21T06:32:10.266Z,25.45
2022-10-21T06:34:11.908Z,27.55
2022-10-21T06:36:13.536Z,27.58
2022-10-21T06:38:15.734Z,29.10
2022-10-21T06:40:17.346Z,25.05
2022-10-21T06:42:18.855Z,31.42
2022-10-21T06:44:20.758Z,27.05
2022-10-21T06:46:22.784Z,27.15
2022-10-21T06:48:24.292Z,26.67
2022-10-21T06:50:26.106Z,25.90
2022-10-21T06:52:27.738Z,27.85
2022-10-21T06:54:29.598Z,25.27
2022-10-21T06:56:31.842Z,26.53
2022-10-21T06:58:34.175Z,21.75
2022-10-21T07:00:37.152Z,23.67
2022-10-21T07:02:39.284Z,24.13
2022-10-21T07:04:45.031Z,25.67
2022-10-21T07:06:46.740Z,30.60
2022-10-21T07:08:57.989Z,26.02
2022-10-21T07:11:00.349Z,26.95
2022-10-21T07:13:01.883Z,22.85
2022-10-21T07:15:03.768Z,26.15
2022-10-21T07:17:05.348Z,24.17
2022-10-21T07:19:06.912Z,34.53
2022-10-21T07:21:10.072Z,29.55
2022-10-21T07:25:13.771Z,29.95
2022-10-21T07:27:15.526Z,28.90
2022-10-21T07:29:17.255Z,23.70
2022-10-21T07:31:19.476Z,23.92
2022-10-21T07:33:21.280Z,22.65
2022-10-21T07:35:23.484Z,23.02
2022-10-21T07:37:24.975Z,22.98
2022-10-21T07:39:27.274Z,22.20
2022-10-21T07:41:30.236Z,23.67
2022-10-21T07:45:34.079Z,21.77
2022-10-21T07:47:35.843Z,22.00
2022-10-21T07:49:37.533Z,23.02
2022-10-21T07:51:39.536Z,24.50
2022-10-21T07:53:41.157Z,23.85
2022-10-21T07:55:42.672Z,23.52
2022-10-21T07:57:44.759Z,26.88
2022-10-21T07:59:46.249Z,22.05
2022-10-21T08:03:55.515Z,20.92
2022-10-21T08:05:57.087Z,21.77
2022-10-21T08:07:58.892Z,27.42
2022-10-21T08:10:00.706Z,28.07
2022-10-21T08:12:02.229Z,24.25
2022-10-21T08:14:06.642Z,22.58
2022-10-21T08:16:08.613Z,20.30
2022-10-21T08:18:10.259Z,23.35
2022-10-21T08:20:12.192Z,23.48
2022-10-21T08:22:14.083Z,21.48
2022-10-21T08:24:15.854Z,27.33
2022-10-21T08:26:17.502Z,24.30
2022-10-21T08:28:19.780Z,23.70
2022-10-21T08:30:21.354Z,23.20
2022-10-21T08:32:22.899Z,24.80
2022-10-21T08:34:24.862Z,22.20
2022-10-21T08:36:26.475Z,23.05
2022-10-21T08:38:28.099Z,25.35
2022-10-21T08:40:31.863Z,24.40
2022-10-21T08:42:33.833Z,42.40
2022-10-21T08:44:48.117Z,31.67
2022-10-21T08:46:55.746Z,27.33
2022-10-21T08:49:04.016Z,26.58
2022-10-21T08:51:06.410Z,28.52
2022-10-21T08:53:27.273Z,24.85
2022-10-21T08:55:33.217Z,34.28
2022-10-21T08:57:35.551Z,30.52
2022-10-21T08:59:37.407Z,22.80
2022-10-21T09:01:43.088Z,27.08
2022-10-21T09:03:54.484Z,23.13
2022-10-21T09:05:56.240Z,22.73
2022-10-21T09:08:01.391Z,23.63
2022-10-21T09:10:07.078Z,24.60
2022-10-21T09:12:08.835Z,23.30
2022-10-21T09:14:23.997Z,22.92
2022-10-21T09:16:31.540Z,23.83
2022-10-21T09:18:48.296Z,26.70
2022-10-21T09:20:54.918Z,23.98
2022-10-21T09:23:16.672Z,23.45
2022-10-21T09:25:18.631Z,23.20
2022-10-21T09:27:27.041Z,26.23
2022-10-21T09:29:43.858Z,23.55
2022-10-21T09:31:48.726Z,24.60
2022-10-21T09:33:55.215Z,23.92
2022-10-21T09:35:59.715Z,23.63
2022-10-21T09:38:10.614Z,22.98
2022-10-21T09:40:20.170Z,23.75
2022-10-21T09:42:42.665Z,23.95
2022-10-21T09:44:44.232Z,20.98
2022-10-21T09:46:46.351Z,20.55
2022-10-21T09:51:34.912Z,20.30
2022-10-21T09:53:50.012Z,23.45
2022-10-21T09:55:58.876Z,25.27
2022-10-21T09:58:01.915Z,18.08
2022-10-21T10:02:07.234Z,19.00
2022-10-21T10:04:27.862Z,22.42
2022-10-21T10:06:30.821Z,20.65
2022-10-21T10:10:34.293Z,22.30
2022-10-21T10:12:36.036Z,22.00
2022-10-21T10:14:39.371Z,17.27
2022-10-21T10:16:41.217Z,22.23
2022-10-21T10:18:43.745Z,19.23
2022-10-21T10:20:45.436Z,24.90
2022-10-21T10:22:59.143Z,21.85
2022-10-21T10:25:09.696Z,21.65
2022-10-21T10:27:16.501Z,22.63
2022-10-21T10:29:25.730Z,19.30
2022-10-21T10:31:31.836Z,21.45
2022-10-21T10:33:35.785Z,18.35
2022-10-21T10:35:38.263Z,20.73
2022-10-21T10:37:40.643Z,24.10
2022-10-21T10:39:43.427Z,27.00
2022-10-21T10:41:46.990Z,23.85
2022-10-21T10:45:54.913Z,32.05
2022-10-21T10:47:58.386Z,20.48
2022-10-21T10:49:59.887Z,25.42
2022-10-21T10:52:15.350Z,20.02
2022-10-21T10:54:19.778Z,21.15
2022-10-21T10:56:44.618Z,19.08
2022-10-21T10:58:53.073Z,22.83
2022-10-21T11:00:57.196Z,18.92
2022-10-21T11:03:05.492Z,23.85
2022-10-21T11:05:13.864Z,22.25
2022-10-21T11:07:15.683Z,23.90
2022-10-21T11:09:18.793Z,27.23
2022-10-21T11:11:23.729Z,20.50
2022-10-21T11:13:25.636Z,24.73
2022-10-21T11:15:50.475Z,25.70
2022-10-21T11:18:17.131Z,20.45
2022-10-21T11:20:38.367Z,22.67
2022-10-21T11:22:55.610Z,21.08
2022-10-21T11:25:05.162Z,20.58
2022-10-21T11:27:09.909Z,22.95
2022-10-21T11:29:30.085Z,19.40
2022-10-21T11:31:43.746Z,19.17
2022-10-21T11:33:59.240Z,33.97
2022-10-21T11:36:11.773Z,29.60
2022-10-21T11:38:32.178Z,20.80
2022-10-21T11:40:41.351Z,23.13
2022-10-21T11:42:44.960Z,20.75
2022-10-21T11:44:46.521Z,23.63
2022-10-21T11:47:07.161Z,22.40
2022-10-21T11:49:17.699Z,19.77
2022-10-21T11:51:38.084Z,25.73
2022-10-21T11:53:58.123Z,21.70
2022-10-21T11:56:18.214Z,20.17
2022-10-21T11:58:32.785Z,19.55
2022-10-21T12:00:54.879Z,21.48
2022-10-21T12:03:02.348Z,23.17
2022-10-21T12:05:08.239Z,21.95
2022-10-21T12:07:14.058Z,19.70
2022-10-21T12:09:19.420Z,23.92
2022-10-21T12:11:24.015Z,26.20
2022-10-21T12:13:28.806Z,22.00
2022-10-21T12:15:36.517Z,23.83
2022-10-21T12:19:54.198Z,21.25
2022-10-21T12:21:55.870Z,21.27
2022-10-21T12:24:06.324Z,24.58
2022-10-21T12:26:23.065Z,19.55
2022-10-21T12:28:31.109Z,19.20
2022-10-21T12:30:37.801Z,20.60
2022-10-21T12:32:48.793Z,20.80
2022-10-21T12:34:50.311Z,23.80
2022-10-21T12:36:54.631Z,19.00
2022-10-21T12:38:57.588Z,19.95
2022-10-21T12:41:18.273Z,17.60
2022-10-21T12:43:27.301Z,16.60
2022-10-21T12:45:30.608Z,18.17
2022-10-21T12:49:35.808Z,19.92
2022-10-21T12:51:38.273Z,16.80
2022-10-21T12:53:48.186Z,14.77
2022-10-21T12:55:51.576Z,19.35
2022-10-21T12:57:57.992Z,26.52
2022-10-21T13:00:25.972Z,20.00
2022-10-21T13:02:28.380Z,17.45
2022-10-21T13:04:33.310Z,17.48
2022-10-21T13:06:55.724Z,16.75
2022-10-21T13:08:57.697Z,19.05
2022-10-21T13:11:20.242Z,19.65
2022-10-21T13:13:33.124Z,16.95
2022-10-21T13:15:45.126Z,17.08
2022-10-21T13:17:56.624Z,18.67
2022-10-21T13:20:21.022Z,18.73
2022-10-21T13:22:31.235Z,16.98
2022-10-21T13:24:33.865Z,17.38
2022-10-21T13:26:39.025Z,19.02
2022-10-21T13:28:41.360Z,19.80
2022-10-21T13:30:48.966Z,20.13
2022-10-21T13:32:59.279Z,15.25
2022-10-21T13:35:07.280Z,20.33
2022-10-21T13:37:13.666Z,18.45
2022-10-21T13:39:32.309Z,17.15
2022-10-21T13:41:34.333Z,23.33
2022-10-21T13:43:46.798Z,17.83
2022-10-21T13:45:49.658Z,17.35
2022-10-21T13:48:01.296Z,19.38
2022-10-21T13:50:12.079Z,16.65
2022-10-21T13:52:13.612Z,19.35
2022-10-21T13:54:15.905Z,22.33
2022-10-21T13:56:25.296Z,15.15
2022-10-21T13:58:28.420Z,16.50
2022-10-21T14:00:31.406Z,17.98
2022-10-21T14:04:40.044Z,17.90
2022-10-21T14:06:53.046Z,18.67
2022-10-21T14:08:55.586Z,13.95
2022-10-21T14:10:58.752Z,15.88
2022-10-21T14:15:13.240Z,19.23
2022-10-21T14:17:16.855Z,18.83
2022-10-21T14:19:20.651Z,19.05
2022-10-21T14:21:24.879Z,19.65
2022-10-21T14:23:27.370Z,16.92
2022-10-21T14:25:29.918Z,17.77
2022-10-21T14:27:32.722Z,20.55
2022-10-21T14:29:35.640Z,18.73
2022-10-21T14:31:37.178Z,16.02
2022-10-21T14:33:42.353Z,17.98
2022-10-21T14:35:43.990Z,16.50
2022-10-21T14:37:48.709Z,22.15
2022-10-21T14:39:50.480Z,22.63
2022-10-21T14:41:53.089Z,17.98
2022-10-21T14:43:54.851Z,19.20
2022-10-21T14:45:56.659Z,18.48
2022-10-21T14:48:02.114Z,16.08
2022-10-21T14:50:04.104Z,18.27
2022-10-21T14:52:07.861Z,23.23
2022-10-21T14:54:18.814Z,16.38
2022-10-21T14:56:22.366Z,15.98
2022-10-21T14:58:35.459Z,16.13
2022-10-21T15:00:41.452Z,17.90
2022-10-21T15:02:43.625Z,16.38
2022-10-21T15:04:51.276Z,19.67
2022-10-21T15:07:02.050Z,19.45
2022-10-21T15:09:09.322Z,16.95
2022-10-21T15:11:15.626Z,20.90
2022-10-21T15:13:17.860Z,16.10
2022-10-21T15:15:39.613Z,20.20
2022-10-21T15:17:41.879Z,19.40
2022-10-21T15:19:49.144Z,18.45
2022-10-21T15:21:52.587Z,18.73
2022-10-21T15:23:55.703Z,19.52
2022-10-21T15:26:03.710Z,14.80
2022-10-21T15:28:10.007Z,19.20
2022-10-21T15:30:16.851Z,18.25
2022-10-21T15:32:26.820Z,17.48
2022-10-21T15:34:29.959Z,17.38
2022-10-21T15:36:31.794Z,20.08
2022-10-21T15:38:33.368Z,21.45
2022-10-21T15:40:35.088Z,18.33
2022-10-21T15:42:36.924Z,18.60
2022-10-21T15:44:38.458Z,19.90
2022-10-21T15:46:46.210Z,21.40
2022-10-21T15:48:49.203Z,20.85
2022-10-21T15:50:50.794Z,19.75
2022-10-21T15:52:52.468Z,19.67
2022-10-21T15:54:54.589Z,18.70
2022-10-21T15:56:57.663Z,18.40
2022-10-21T16:01:01.018Z,18.08
2022-10-21T16:03:02.618Z,19.75
2022-10-21T16:05:04.382Z,18.27
2022-10-21T16:07:29.308Z,17.60
2022-10-21T16:09:30.848Z,20.10
2022-10-21T16:11:40.646Z,21.42
2022-10-21T16:13:43.663Z,25.13
2022-10-21T16:15:45.319Z,18.43
2022-10-21T16:17:48.434Z,20.67
2022-10-21T16:19:50.191Z,26.70
2022-10-21T16:21:51.708Z,22.17
2022-10-21T16:23:53.267Z,21.20
2022-10-21T16:25:56.060Z,23.08
2022-10-21T16:27:57.718Z,20.63
2022-10-21T16:29:59.241Z,25.23
2022-10-21T16:32:01.037Z,27.92
2022-10-21T16:34:02.620Z,27.38
2022-10-21T16:36:10.059Z,25.08
2022-10-21T16:38:11.938Z,22.08
2022-10-21T16:40:18.917Z,27.20
2022-10-21T16:42:20.559Z,23.27
2022-10-21T16:44:22.354Z,23.15
2022-10-21T16:46:30.145Z,25.02
2022-10-21T16:48:32.162Z,23.85
2022-10-21T16:50:43.698Z,27.05
2022-10-21T16:52:45.254Z,26.73
2022-10-21T16:54:48.904Z,24.90
2022-10-21T16:56:53.376Z,27.98
2022-10-21T16:58:57.050Z,27.15
2022-10-21T17:00:58.978Z,21.80
2022-10-21T17:03:00.860Z,28.40
2022-10-21T17:05:02.473Z,24.75
2022-10-21T17:07:04.137Z,27.55
2022-10-21T17:09:06.221Z,24.98
2022-10-21T17:11:14.808Z,24.53
2022-10-21T17:13:16.423Z,25.98
2022-10-21T17:15:18.132Z,25.13
2022-10-21T17:17:22.238Z,23.13
2022-10-21T17:19:24.310Z,25.10
2022-10-21T17:21:32.804Z,23.30
2022-10-21T17:23:34.408Z,26.45
2022-10-21T17:25:35.947Z,23.70
2022-10-21T17:27:37.958Z,22.25
2022-10-21T17:29:39.672Z,25.52
2022-10-21T17:31:42.268Z,23.45
2022-10-21T17:33:44.690Z,22.92
2022-10-21T17:35:46.354Z,25.17
2022-10-21T17:37:48.818Z,25.35
2022-10-21T17:39:50.770Z,23.92
2022-10-21T17:41:52.761Z,23.40
2022-10-21T17:43:55.705Z,27.33
2022-10-21T17:45:57.654Z,23.92
2022-10-21T17:47:59.276Z,23.92
2022-10-21T17:50:00.765Z,22.35
2022-10-21T17:52:02.584Z,24.02
2022-10-21T17:54:04.145Z,25.08
2022-10-21T17:56:06.943Z,25.45
2022-10-21T18:00:10.310Z,24.40
2022-10-21T18:02:11.899Z,24.98
2022-10-21T18:04:14.148Z,22.48
2022-10-21T18:06:15.944Z,26.10
2022-10-21T18:08:17.471Z,24.55
2022-10-21T18:10:19.206Z,24.42
2022-10-21T18:12:21.359Z,25.65
2022-10-21T18:14:23.017Z,27.70
2022-10-21T18:16:24.867Z,33.38
2022-10-21T18:18:26.487Z,24.40
2022-10-21T18:20:28.104Z,25.63
2022-10-21T18:22:29.835Z,25.38
2022-10-21T18:24:31.515Z,25.10
2022-10-21T18:26:33.311Z,28.42
2022-10-21T18:28:35.444Z,33.30
2022-10-21T18:30:46.122Z,25.27
2022-10-21T18:32:47.651Z,23.45
2022-10-21T18:34:49.542Z,25.35
2022-10-21T18:38:53.735Z,27.35
2022-10-21T18:41:02.175Z,26.20
2022-10-21T18:43:17.060Z,28.27
2022-10-21T18:45:18.622Z,22.70
2022-10-21T18:47:20.424Z,28.13
2022-10-21T18:49:22.180Z,29.83
2022-10-21T18:51:24.047Z,26.33
2022-10-21T18:53:26.125Z,36.60
2022-10-21T18:55:27.625Z,31.10
2022-10-21T18:57:29.332Z,26.67
2022-10-21T18:59:31.108Z,30.35
2022-10-21T19:01:32.838Z,29.23
2022-10-21T19:03:34.547Z,31.60
2022-10-21T19:05:36.464Z,32.92
2022-10-21T19:07:38.482Z,28.95
2022-10-21T19:09:40.340Z,35.03
2022-10-21T19:11:42.781Z,33.35
2022-10-21T19:13:44.450Z,35.25
2022-10-21T19:15:46.010Z,30.58
2022-10-21T19:17:47.868Z,38.33
2022-10-21T19:19:49.748Z,34.05
2022-10-21T19:21:51.563Z,38.07
2022-10-21T19:23:54.138Z,32.27
2022-10-21T19:25:55.959Z,34.42
2022-10-21T19:27:57.463Z,32.58
2022-10-21T19:29:59.233Z,38.35
2022-10-21T19:32:00.851Z,34.47
2022-10-21T19:34:02.643Z,40.00
2022-10-21T19:36:05.655Z,36.42
2022-10-21T19:38:11.560Z,33.30
2022-10-21T19:40:17.320Z,35.58
2022-10-21T19:42:19.045Z,32.75
2022-10-21T19:44:20.744Z,35.65
2022-10-21T19:46:25.509Z,40.00
2022-10-21T19:48:27.642Z,40.47
2022-10-21T19:50:29.230Z,38.03
2022-10-21T19:52:31.066Z,27.95
2022-10-21T19:54:32.819Z,35.63
2022-10-21T19:56:34.984Z,38.17
2022-10-21T19:58:37.202Z,35.70
2022-10-21T20:00:39.110Z,33.05
2022-10-21T20:02:41.864Z,33.08
2022-10-21T20:04:44.338Z,34.47
2022-10-21T20:06:47.792Z,40.80
2022-10-21T20:08:49.710Z,35.47
2022-10-21T20:11:05.666Z,36.80
2022-10-21T20:13:07.375Z,35.72
2022-10-21T20:15:09.155Z,36.58
2022-10-21T20:17:11.723Z,37.33
2022-10-21T20:19:15.942Z,34.17
2022-10-21T20:21:17.573Z,32.83
2022-10-21T20:23:19.162Z,32.22
2022-10-21T20:25:20.891Z,34.17
2022-10-21T20:27:22.392Z,33.72
2022-10-21T20:29:24.101Z,33.90
2022-10-21T20:31:25.944Z,35.45
2022-10-21T20:33:28.671Z,35.50
2022-10-21T20:35:30.320Z,35.75
2022-10-21T20:37:32.055Z,39.67
2022-10-21T20:39:33.590Z,36.42
2022-10-21T20:41:37.108Z,32.42
2022-10-21T20:43:39.607Z,36.97
2022-10-21T20:45:41.136Z,34.33
2022-10-21T20:47:43.117Z,35.45
2022-10-21T20:49:45.281Z,35.63
2022-10-21T20:51:46.876Z,31.33
2022-10-21T20:53:49.724Z,35.95
2022-10-21T20:55:55.007Z,40.30
2022-10-21T20:57:56.511Z,36.25
2022-10-21T20:59:58.208Z,39.08
2022-10-21T21:01:59.940Z,36.42
2022-10-21T21:04:04.935Z,38.88
2022-10-21T21:06:06.987Z,38.75
2022-10-21T21:08:08.922Z,41.72
2022-10-21T21:10:10.616Z,37.75
2022-10-21T21:12:12.292Z,41.33
2022-10-21T21:14:14.230Z,39.25
2022-10-21T21:16:17.127Z,39.28
2022-10-21T21:18:18.771Z,35.92
2022-10-21T21:20:20.495Z,37.17
2022-10-21T21:22:22.105Z,35.05
2022-10-21T21:24:23.759Z,39.95
2022-10-21T21:26:27.277Z,43.80
2022-10-21T21:28:32.693Z,37.22
2022-10-21T21:30:37.040Z,41.20
2022-10-21T21:32:39.172Z,39.08
2022-10-21T21:34:41.012Z,42.77
2022-10-21T21:36:42.535Z,36.95
2022-10-21T21:38:44.450Z,39.05
2022-10-21T21:40:46.539Z,39.58
2022-10-21T21:42:48.077Z,42.13
2022-10-21T21:44:49.914Z,44.75
2022-10-21T21:46:51.508Z,39.60
2022-10-21T21:48:56.037Z,49.08
2022-10-21T21:51:01.154Z,40.80
2022-10-21T21:53:02.787Z,38.40
2022-10-21T21:55:04.632Z,44.53
2022-10-21T21:59:28.014Z,43.78
2022-10-21T22:01:29.858Z,41.70
2022-10-21T22:03:31.703Z,42.10
2022-10-21T22:05:33.380Z,40.53
2022-10-21T22:07:34.880Z,41.72
2022-10-21T22:09:36.588Z,46.35
2022-10-21T22:11:38.457Z,41.70
2022-10-21T22:13:40.635Z,46.17
2022-10-21T22:15:47.975Z,42.63
2022-10-21T22:17:50.816Z,44.72
2022-10-21T22:19:53.934Z,47.33
2022-10-21T22:21:55.985Z,45.40
2022-10-21T22:23:57.710Z,45.13
2022-10-21T22:25:59.231Z,44.75
2022-10-21T22:28:00.956Z,45.08
2022-10-21T22:30:02.700Z,46.10
2022-10-21T22:32:04.958Z,49.97
2022-10-21T22:34:09.362Z,48.88
2022-10-21T22:36:16.274Z,51.63
2022-10-21T22:38:18.103Z,48.95
2022-10-21T22:40:19.794Z,48.10
2022-10-21T22:42:21.487Z,49.25
2022-10-21T22:44:23.177Z,52.45
2022-10-21T22:46:40.405Z,51.08
2022-10-21T22:48:42.046Z,44.97
2022-10-21T22:50:43.901Z,51.38
2022-10-21T22:52:45.670Z,45.97
2022-10-21T22:54:49.823Z,44.63
2022-10-21T22:56:51.838Z,47.85
2022-10-21T22:58:53.815Z,49.97
2022-10-21T23:03:03.240Z,47.40
2022-10-21T23:05:07.906Z,52.22
2022-10-21T23:07:09.578Z,51.80
2022-10-21T23:09:11.160Z,44.17
2022-10-21T23:11:12.971Z,45.85
2022-10-21T23:13:14.511Z,45.58
2022-10-21T23:15:16.014Z,46.15
2022-10-21T23:17:17.776Z,49.65
2022-10-21T23:19:19.277Z,46.80
2022-10-21T23:21:20.848Z,50.85
2022-10-21T23:23:22.677Z,52.33
2022-10-21T23:25:24.352Z,48.13
2022-10-21T23:27:27.886Z,54.58
2022-10-21T23:29:29.688Z,48.72
2022-10-21T23:31:31.272Z,48.00
2022-10-21T23:33:32.806Z,51.83
2022-10-21T23:35:34.715Z,50.10
2022-10-21T23:37:36.352Z,50.60
2022-10-21T23:39:37.879Z,51.50
2022-10-21T23:41:39.608Z,51.35
2022-10-21T23:43:41.304Z,44.35
2022-10-21T23:45:42.823Z,55.90
2022-10-21T23:47:44.687Z,48.70
2022-10-21T23:49:46.528Z,46.97
2022-10-21T23:51:48.501Z,51.35
2022-10-21T23:53:50.279Z,51.78
2022-10-21T23:55:51.774Z,51.15
2022-10-21T23:57:53.380Z,50.50
2022-10-21T23:59:55.150Z,50.92
